createdAt,value
2017-09-27T00:01:44.741Z,93.90
2017-09-27T00:04:13.067Z,93.90
2017-09-27T00:06:42.140Z,94.20
2017-09-27T00:09:10.535Z,94.20
2017-09-27T00:11:39.740Z,94.50
2017-09-27T00:14:08.094Z,94.20
2017-09-27T00:16:37.186Z,94.90
2017-09-27T00:19:06.613Z,95.00
2017-09-27T00:21:34.991Z,95.30
2017-09-27T00:24:03.345Z,95.90
2017-09-27T00:26:32.410Z,96.70
2017-09-27T00:29:00.740Z,96.20
2017-09-27T00:31:29.105Z,96.30
2017-09-27T00:33:57.468Z,96.30
2017-09-27T00:36:25.783Z,96.40
2017-09-27T00:38:54.140Z,96.80
2017-09-27T00:41:22.478Z,96.90
2017-09-27T00:43:51.617Z,97.70
2017-09-27T00:46:19.972Z,97.70
2017-09-27T00:48:49.292Z,98.00
2017-09-27T00:51:17.667Z,98.00
2017-09-27T00:53:46.003Z,99.10
2017-09-27T00:56:24.964Z,99.00
2017-09-27T00:58:53.337Z,99.20
2017-09-27T01:01:21.696Z,99.00
2017-09-27T01:03:50.811Z,99.20
2017-09-27T01:06:20.496Z,99.40
2017-09-27T01:08:48.812Z,99.30
2017-09-27T01:11:18.009Z,99.60
2017-09-27T01:13:46.406Z,99.90
2017-09-27T01:16:14.779Z,99.70
2017-09-27T01:18:43.133Z,99.70
2017-09-27T01:21:11.488Z,99.90
2017-09-27T01:23:40.629Z,99.80
2017-09-27T01:26:09.005Z,99.80
2017-09-27T01:28:37.336Z,99.80
2017-09-27T01:31:05.719Z,99.70
2017-09-27T01:33:34.152Z,99.60
2017-09-27T01:36:02.507Z,99.60
2017-09-27T01:38:30.849Z,99.90
2017-09-27T01:40:59.225Z,99.90
2017-09-27T01:43:33.897Z,99.90
2017-09-27T01:46:02.238Z,99.90
2017-09-27T01:48:31.370Z,99.90
2017-09-27T01:50:59.707Z,99.90
2017-09-27T01:53:28.101Z,99.90
2017-09-27T01:55:56.436Z,99.90
2017-09-27T01:58:25.602Z,99.90
2017-09-27T02:00:54.776Z,99.90
2017-09-27T02:03:23.762Z,99.90
2017-09-27T02:05:52.170Z,99.90
2017-09-27T02:08:20.549Z,99.90
2017-09-27T02:10:48.939Z,99.90
2017-09-27T02:13:17.311Z,99.90
2017-09-27T02:15:45.662Z,99.90
2017-09-27T02:18:14.066Z,99.90
2017-09-27T02:20:43.155Z,99.90
2017-09-27T02:23:11.507Z,99.90
2017-09-27T02:25:39.862Z,99.90
2017-09-27T02:28:08.171Z,99.90
2017-09-27T02:30:37.301Z,99.90
2017-09-27T02:33:06.397Z,99.90
2017-09-27T02:35:35.717Z,99.90
2017-09-27T02:38:05.103Z,99.90
2017-09-27T02:40:33.444Z,99.90
2017-09-27T02:43:01.774Z,99.90
2017-09-27T02:45:30.133Z,99.90
2017-09-27T02:47:58.521Z,99.90
2017-09-27T02:50:26.954Z,99.90
2017-09-27T02:52:56.324Z,99.90
2017-09-27T02:55:25.450Z,99.90
2017-09-27T02:57:53.786Z,99.90
2017-09-27T03:00:22.123Z,99.90
2017-09-27T03:02:51.273Z,99.90
2017-09-27T03:05:19.661Z,99.90
2017-09-27T03:07:54.834Z,99.90
2017-09-27T03:10:23.955Z,99.90
2017-09-27T03:12:53.145Z,99.90
2017-09-27T03:15:21.598Z,99.90
2017-09-27T03:17:50.572Z,99.90
2017-09-27T03:20:18.952Z,99.90
2017-09-27T03:22:47.317Z,99.90
2017-09-27T03:25:15.667Z,99.90
2017-09-27T03:27:43.986Z,99.90
2017-09-27T03:30:13.080Z,99.90
2017-09-27T03:32:41.446Z,99.90
2017-09-27T03:35:09.823Z,99.90
2017-09-27T03:37:38.946Z,99.90
2017-09-27T03:40:08.127Z,99.90
2017-09-27T03:42:36.509Z,99.90
2017-09-27T03:45:04.849Z,99.90
2017-09-27T03:47:33.189Z,99.90
2017-09-27T03:50:02.325Z,99.90
2017-09-27T03:52:30.667Z,99.90
2017-09-27T03:54:59.033Z,99.90
2017-09-27T03:57:27.388Z,99.90
2017-09-27T03:59:55.752Z,99.90
2017-09-27T04:02:25.122Z,99.90
2017-09-27T04:04:54.291Z,99.90
2017-09-27T04:07:22.730Z,99.90
2017-09-27T04:09:52.036Z,99.90
2017-09-27T04:12:20.485Z,99.90
2017-09-27T04:14:49.620Z,99.90
2017-09-27T04:17:24.327Z,99.90
2017-09-27T04:19:52.657Z,99.90
2017-09-27T04:22:21.804Z,99.90
2017-09-27T04:24:50.178Z,99.90
2017-09-27T04:27:19.366Z,99.90
2017-09-27T04:29:47.856Z,99.90
2017-09-27T04:32:16.337Z,99.90
2017-09-27T04:34:44.847Z,99.90
2017-09-27T04:37:13.348Z,99.90
2017-09-27T04:39:47.149Z,99.90
2017-09-27T04:42:15.591Z,99.90
2017-09-27T04:44:44.853Z,99.90
2017-09-27T04:47:13.168Z,99.90
2017-09-27T04:49:41.519Z,99.90
2017-09-27T04:52:10.619Z,99.90
2017-09-27T04:54:38.935Z,99.90
2017-09-27T04:57:08.039Z,99.90
2017-09-27T04:59:36.345Z,99.90
2017-09-27T05:02:04.654Z,99.90
2017-09-27T05:04:32.985Z,99.90
2017-09-27T05:07:01.362Z,99.90
2017-09-27T05:09:29.695Z,99.90
2017-09-27T05:11:58.004Z,99.90
2017-09-27T05:14:26.326Z,99.90
2017-09-27T05:16:55.502Z,99.90
2017-09-27T05:19:23.806Z,99.90
2017-09-27T05:21:52.973Z,99.90
2017-09-27T05:24:21.293Z,99.90
2017-09-27T05:26:49.621Z,99.90
2017-09-27T05:29:17.920Z,99.90
2017-09-27T05:31:46.281Z,99.90
2017-09-27T05:34:14.761Z,99.90
2017-09-27T05:36:43.142Z,99.90
2017-09-27T05:39:11.493Z,99.90
2017-09-27T05:41:39.810Z,99.90
2017-09-27T05:44:10.595Z,99.90
2017-09-27T05:46:40.223Z,99.90
2017-09-27T05:49:08.594Z,99.90
2017-09-27T05:51:49.323Z,99.90
2017-09-27T05:54:19.171Z,99.90
2017-09-27T05:56:47.634Z,99.90
2017-09-27T05:59:17.237Z,99.90
2017-09-27T06:01:45.765Z,99.90
2017-09-27T06:04:19.554Z,99.90
2017-09-27T06:06:48.824Z,99.90
2017-09-27T06:09:17.220Z,99.90
2017-09-27T06:11:45.612Z,99.90
2017-09-27T06:14:13.926Z,99.90
2017-09-27T06:16:42.263Z,99.90
2017-09-27T06:19:12.923Z,99.90
2017-09-27T06:21:41.482Z,99.90
2017-09-27T06:24:09.825Z,98.50
2017-09-27T06:26:38.182Z,98.10
2017-09-27T06:29:06.550Z,97.10
2017-09-27T06:31:34.892Z,97.30
2017-09-27T06:34:16.734Z,97.40
2017-09-27T06:36:49.749Z,97.80
2017-09-27T06:39:18.626Z,98.00
2017-09-27T06:41:47.049Z,97.20
2017-09-27T06:44:15.371Z,96.20
2017-09-27T06:46:43.755Z,95.30
2017-09-27T06:49:12.111Z,94.90
2017-09-27T06:51:40.456Z,94.00
2017-09-27T06:54:08.851Z,93.00
2017-09-27T06:56:37.196Z,93.90
2017-09-27T06:59:05.611Z,93.70
2017-09-27T07:01:34.961Z,93.80
2017-09-27T07:04:04.124Z,93.70
2017-09-27T07:06:32.572Z,93.70
2017-09-27T07:09:00.919Z,94.30
2017-09-27T07:11:29.566Z,93.10
2017-09-27T07:13:58.795Z,92.00
2017-09-27T07:16:27.109Z,92.70
2017-09-27T07:18:55.814Z,92.60
2017-09-27T07:21:24.276Z,91.40
2017-09-27T07:23:52.630Z,91.30
2017-09-27T07:26:20.973Z,90.80
2017-09-27T07:28:49.348Z,89.90
2017-09-27T07:31:19.578Z,88.50
2017-09-27T07:33:48.711Z,88.50
2017-09-27T07:36:17.249Z,88.70
2017-09-27T07:38:45.775Z,88.00
2017-09-27T07:41:14.269Z,88.30
2017-09-27T07:43:42.628Z,86.00
2017-09-27T07:46:11.689Z,87.00
2017-09-27T07:48:41.057Z,87.00
2017-09-27T07:51:09.508Z,86.50
2017-09-27T07:53:37.837Z,86.60
2017-09-27T07:56:06.185Z,86.20
2017-09-27T07:58:34.523Z,85.70
2017-09-27T08:01:02.915Z,85.90
2017-09-27T08:03:31.335Z,86.60
2017-09-27T08:05:59.688Z,83.90
2017-09-27T08:08:28.047Z,81.40
2017-09-27T08:11:01.097Z,78.90
2017-09-27T08:16:08.841Z,73.90
2017-09-27T08:18:42.185Z,69.40
2017-09-27T08:23:58.635Z,67.70
2017-09-27T08:26:41.019Z,65.90
2017-09-27T08:29:10.294Z,63.00
2017-09-27T08:32:01.977Z,63.80
2017-09-27T08:34:30.311Z,62.50
2017-09-27T08:36:58.704Z,61.80
2017-09-27T08:39:27.162Z,62.10
2017-09-27T08:41:55.611Z,60.30
2017-09-27T08:44:23.962Z,61.30
2017-09-27T08:46:56.032Z,61.70
2017-09-27T08:49:25.786Z,62.10
2017-09-27T08:51:54.220Z,61.40
2017-09-27T08:54:22.588Z,60.70
2017-09-27T08:56:57.593Z,59.80
2017-09-27T09:02:32.645Z,57.50
2017-09-27T09:05:01.030Z,55.40
2017-09-27T09:07:30.169Z,56.30
2017-09-27T09:09:58.697Z,55.70
2017-09-27T09:12:27.995Z,55.20
2017-09-27T09:17:59.669Z,52.90
2017-09-27T09:20:29.550Z,53.90
2017-09-27T09:22:58.042Z,53.60
2017-09-27T09:25:28.277Z,51.60
2017-09-27T09:30:58.329Z,53.50
2017-09-27T09:33:58.840Z,52.40
2017-09-27T09:43:26.553Z,50.30
2017-09-27T09:48:47.684Z,52.00
2017-09-27T09:51:16.057Z,50.90
2017-09-27T09:59:51.019Z,51.70
2017-09-27T10:02:26.001Z,52.50
2017-09-27T10:04:55.279Z,53.80
2017-09-27T10:07:23.611Z,53.10
2017-09-27T10:09:52.013Z,52.10
2017-09-27T10:12:20.413Z,51.50
2017-09-27T10:14:48.960Z,50.50
2017-09-27T10:17:25.561Z,52.40
2017-09-27T10:22:35.146Z,52.50
2017-09-27T10:25:03.514Z,54.80
2017-09-27T10:27:31.864Z,51.70
2017-09-27T10:30:00.219Z,50.20
2017-09-27T10:32:28.569Z,49.20
2017-09-27T10:34:56.981Z,51.60
2017-09-27T10:40:18.786Z,50.00
2017-09-27T10:42:59.547Z,52.80
2017-09-27T10:45:27.904Z,54.20
2017-09-27T10:47:56.253Z,55.00
2017-09-27T10:50:25.100Z,54.00
2017-09-27T10:52:53.443Z,55.30
2017-09-27T10:55:23.839Z,53.90
2017-09-27T10:57:53.175Z,56.00
2017-09-27T11:00:21.561Z,55.90
2017-09-27T11:02:50.866Z,56.50
2017-09-27T11:05:19.178Z,56.30
2017-09-27T11:07:47.524Z,57.80
2017-09-27T11:10:15.867Z,58.20
2017-09-27T11:12:44.231Z,58.40
2017-09-27T11:15:12.629Z,59.80
2017-09-27T11:18:00.380Z,61.00
2017-09-27T11:20:28.873Z,60.30
2017-09-27T11:22:57.251Z,61.40
2017-09-27T11:25:25.651Z,60.70
2017-09-27T11:27:56.991Z,59.90
2017-09-27T11:30:25.383Z,59.30
2017-09-27T11:32:53.743Z,57.60
2017-09-27T11:35:22.487Z,55.50
2017-09-27T11:37:50.919Z,55.50
2017-09-27T11:40:19.284Z,54.40
2017-09-27T11:42:53.590Z,54.30
2017-09-27T11:45:31.363Z,53.90
2017-09-27T11:48:24.909Z,54.10
2017-09-27T11:50:55.255Z,53.80
2017-09-27T11:53:25.200Z,54.40
2017-09-27T11:55:53.586Z,53.50
2017-09-27T11:58:21.975Z,52.50
2017-09-27T12:00:56.168Z,51.60
2017-09-27T12:06:21.646Z,50.00
2017-09-27T12:08:56.577Z,50.00
2017-09-27T12:11:26.085Z,48.60
2017-09-27T12:13:54.405Z,48.50
2017-09-27T12:16:22.738Z,49.20
2017-09-27T12:18:55.222Z,49.10
2017-09-27T12:21:23.679Z,49.30
2017-09-27T12:23:52.056Z,49.10
2017-09-27T12:26:26.259Z,47.80
2017-09-27T12:28:54.731Z,49.20
2017-09-27T12:31:24.175Z,50.40
2017-09-27T12:41:20.384Z,49.10
2017-09-27T12:43:48.691Z,49.10
2017-09-27T12:46:17.044Z,50.00
2017-09-27T12:48:45.356Z,50.20
2017-09-27T12:51:13.709Z,52.70
2017-09-27T12:53:42.040Z,50.70
2017-09-27T12:56:11.127Z,51.70
2017-09-27T12:58:54.548Z,51.70
2017-09-27T13:01:25.789Z,51.00
2017-09-27T13:03:54.955Z,50.90
2017-09-27T13:06:23.645Z,51.70
2017-09-27T13:08:52.018Z,47.60
2017-09-27T13:11:22.134Z,49.70
2017-09-27T13:13:51.232Z,49.70
2017-09-27T13:16:19.599Z,49.20
2017-09-27T13:18:56.314Z,50.00
2017-09-27T13:21:25.463Z,47.60
2017-09-27T13:23:53.823Z,49.00
2017-09-27T13:29:21.936Z,47.10
2017-09-27T13:31:50.281Z,48.80
2017-09-27T13:34:37.870Z,51.30
2017-09-27T13:37:06.250Z,51.30
2017-09-27T13:39:34.553Z,50.20
2017-09-27T13:42:02.855Z,49.80
2017-09-27T13:44:54.256Z,48.70
2017-09-27T13:47:25.794Z,48.60
2017-09-27T13:50:24.677Z,50.20
2017-09-27T13:53:24.148Z,49.60
2017-09-27T13:55:56.376Z,49.70
2017-09-27T13:58:25.167Z,49.00
2017-09-27T14:00:55.426Z,48.90
2017-09-27T14:03:25.731Z,48.70
2017-09-27T14:05:54.102Z,49.90
2017-09-27T14:08:22.491Z,50.40
2017-09-27T14:11:25.301Z,50.10
2017-09-27T14:14:09.499Z,51.40
2017-09-27T14:16:38.039Z,50.70
2017-09-27T14:19:23.487Z,51.10
2017-09-27T14:21:51.831Z,51.20
2017-09-27T14:24:21.169Z,53.00
2017-09-27T14:26:49.621Z,52.00
2017-09-27T14:29:18.730Z,52.70
2017-09-27T14:31:47.092Z,52.20
2017-09-27T14:34:15.413Z,51.70
2017-09-27T14:36:43.794Z,53.00
2017-09-27T14:39:23.593Z,53.70
2017-09-27T14:41:54.423Z,53.70
2017-09-27T14:44:34.980Z,52.50
2017-09-27T14:47:03.302Z,52.90
2017-09-27T14:49:33.095Z,52.00
2017-09-27T14:52:01.544Z,52.10
2017-09-27T14:54:44.449Z,54.80
2017-09-27T14:57:15.106Z,52.40
2017-09-27T14:59:44.258Z,54.70
2017-09-27T15:02:13.594Z,54.60
2017-09-27T15:04:43.683Z,55.40
2017-09-27T15:07:12.031Z,55.10
2017-09-27T15:09:40.494Z,54.20
2017-09-27T15:12:08.852Z,55.40
2017-09-27T15:14:38.839Z,55.90
2017-09-27T15:17:07.253Z,55.90
2017-09-27T15:19:35.560Z,54.50
2017-09-27T15:22:03.885Z,54.40
2017-09-27T15:24:32.343Z,55.60
2017-09-27T15:27:00.695Z,55.90
2017-09-27T15:29:29.082Z,55.50
2017-09-27T15:31:57.456Z,55.00
2017-09-27T15:34:25.783Z,55.30
2017-09-27T15:36:54.128Z,55.50
2017-09-27T15:39:22.494Z,55.60
2017-09-27T15:41:51.790Z,55.20
2017-09-27T15:44:20.141Z,54.20
2017-09-27T15:46:48.532Z,54.20
2017-09-27T15:49:16.856Z,54.90
2017-09-27T15:51:45.908Z,58.30
2017-09-27T15:54:14.190Z,58.30
2017-09-27T15:56:42.526Z,57.70
2017-09-27T15:59:10.826Z,58.40
2017-09-27T16:01:39.135Z,58.10
2017-09-27T16:04:07.454Z,58.60
2017-09-27T16:06:35.751Z,58.20
2017-09-27T16:09:04.132Z,58.00
2017-09-27T16:11:32.485Z,58.20
2017-09-27T16:14:00.881Z,58.60
2017-09-27T16:16:29.164Z,59.20
2017-09-27T16:18:57.483Z,58.90
2017-09-27T16:21:25.821Z,59.50
2017-09-27T16:23:54.145Z,60.00
2017-09-27T16:26:22.783Z,60.50
2017-09-27T16:28:51.133Z,59.80
2017-09-27T16:31:19.509Z,59.70
2017-09-27T16:33:47.891Z,59.90
2017-09-27T16:36:16.253Z,60.60
2017-09-27T16:38:44.620Z,62.00
2017-09-27T16:41:13.886Z,62.30
2017-09-27T16:43:42.405Z,64.00
2017-09-27T16:46:12.196Z,63.50
2017-09-27T16:48:44.210Z,66.00
2017-09-27T16:51:12.639Z,66.00
2017-09-27T16:53:40.939Z,68.60
2017-09-27T16:56:09.243Z,67.80
2017-09-27T16:58:37.569Z,68.70
2017-09-27T17:01:05.894Z,70.10
2017-09-27T17:03:34.220Z,70.70
2017-09-27T17:06:02.522Z,71.60
2017-09-27T17:08:31.624Z,71.70
2017-09-27T17:11:00.255Z,71.70
2017-09-27T17:13:31.100Z,72.90
2017-09-27T17:15:59.496Z,73.60
2017-09-27T17:18:27.816Z,74.70
2017-09-27T17:20:56.186Z,73.90
2017-09-27T17:23:24.571Z,75.80
2017-09-27T17:25:52.900Z,76.50
2017-09-27T17:28:21.301Z,76.00
2017-09-27T17:30:49.851Z,77.90
2017-09-27T17:33:18.953Z,78.50
2017-09-27T17:35:47.271Z,78.50
2017-09-27T17:38:16.477Z,78.50
2017-09-27T17:40:45.674Z,77.40
2017-09-27T17:43:16.021Z,77.40
2017-09-27T17:45:45.584Z,78.20
2017-09-27T17:48:14.904Z,77.70
2017-09-27T17:50:44.114Z,79.20
2017-09-27T17:53:13.360Z,79.50
2017-09-27T17:55:41.771Z,79.30
2017-09-27T17:58:10.221Z,80.00
2017-09-27T18:00:38.632Z,79.50
2017-09-27T18:03:06.979Z,80.10
2017-09-27T18:05:38.469Z,81.50
2017-09-27T18:08:16.335Z,81.40
2017-09-27T18:10:50.103Z,82.70
2017-09-27T18:16:42.161Z,83.80
2017-09-27T18:19:10.484Z,85.60
2017-09-27T18:21:38.798Z,85.40
2017-09-27T18:24:07.341Z,85.80
2017-09-27T18:26:35.727Z,85.30
2017-09-27T18:29:04.093Z,85.10
2017-09-27T18:31:32.440Z,86.10
2017-09-27T18:34:01.744Z,86.40
2017-09-27T18:36:30.164Z,86.30
2017-09-27T18:38:59.929Z,86.10
2017-09-27T18:41:28.391Z,86.40
2017-09-27T18:43:57.929Z,87.40
2017-09-27T18:46:32.428Z,85.50
2017-09-27T18:49:00.872Z,86.20
2017-09-27T18:51:30.277Z,86.70
2017-09-27T18:53:58.736Z,87.40
2017-09-27T18:56:27.854Z,87.90
2017-09-27T18:58:59.029Z,88.00
2017-09-27T19:01:27.493Z,88.60
2017-09-27T19:04:03.018Z,87.90
2017-09-27T19:06:31.520Z,88.10
2017-09-27T19:09:00.794Z,87.80
2017-09-27T19:11:29.196Z,88.10
2017-09-27T19:13:58.721Z,87.30
2017-09-27T19:16:28.249Z,87.30
2017-09-27T19:18:56.602Z,87.70
2017-09-27T19:21:25.017Z,88.00
2017-09-27T19:23:54.151Z,87.70
2017-09-27T19:26:23.680Z,87.70
2017-09-27T19:28:52.142Z,88.00
2017-09-27T19:31:20.555Z,88.00
2017-09-27T19:33:53.201Z,87.90
2017-09-27T19:36:23.300Z,88.50
2017-09-27T19:38:53.391Z,89.40
2017-09-27T19:41:24.523Z,89.40
2017-09-27T19:43:57.797Z,88.50
2017-09-27T19:46:26.426Z,88.20
2017-09-27T19:48:55.569Z,90.20
2017-09-27T19:51:28.787Z,90.20
2017-09-27T19:53:57.627Z,92.00
2017-09-27T19:56:26.736Z,93.00
2017-09-27T19:58:59.306Z,92.70
2017-09-27T20:01:28.836Z,92.90
2017-09-27T20:03:57.441Z,93.50
2017-09-27T20:06:26.890Z,94.70
2017-09-27T20:08:55.207Z,94.70
2017-09-27T20:11:24.537Z,94.90
2017-09-27T20:13:53.729Z,96.40
2017-09-27T20:16:24.089Z,96.80
2017-09-27T20:18:54.378Z,95.70
2017-09-27T20:21:22.783Z,96.20
2017-09-27T20:23:52.025Z,93.70
2017-09-27T20:26:24.111Z,94.00
2017-09-27T20:28:53.541Z,93.50
2017-09-27T20:31:22.941Z,93.20
2017-09-27T20:33:51.381Z,93.10
2017-09-27T20:36:20.534Z,92.50
2017-09-27T20:38:51.540Z,92.50
2017-09-27T20:41:19.929Z,92.50
2017-09-27T20:43:48.259Z,92.20
2017-09-27T20:46:17.679Z,91.90
2017-09-27T20:48:45.988Z,91.20
2017-09-27T20:51:15.410Z,91.30
2017-09-27T20:53:47.296Z,91.50
2017-09-27T20:56:15.671Z,91.90
2017-09-27T20:58:45.253Z,92.80
2017-09-27T21:01:14.611Z,92.50
2017-09-27T21:03:43.001Z,93.00
2017-09-27T21:06:11.546Z,92.00
2017-09-27T21:08:42.404Z,91.60
2017-09-27T21:11:11.144Z,91.80
2017-09-27T21:13:39.735Z,92.00
2017-09-27T21:16:09.700Z,91.90
2017-09-27T21:18:38.332Z,92.10
2017-09-27T21:21:06.837Z,92.50
2017-09-27T21:23:35.373Z,92.60
2017-09-27T21:26:03.748Z,93.20
2017-09-27T21:28:32.353Z,93.20
2017-09-27T21:31:04.384Z,93.30
2017-09-27T21:33:33.014Z,93.40
2017-09-27T21:36:01.547Z,93.80
2017-09-27T21:38:50.209Z,93.30
2017-09-27T21:41:19.377Z,93.50
2017-09-27T21:43:47.692Z,93.50
2017-09-27T21:46:16.005Z,93.20
2017-09-27T21:48:44.328Z,93.20
2017-09-27T21:51:12.639Z,93.60
2017-09-27T21:53:40.978Z,94.00
2017-09-27T21:56:10.066Z,93.80
2017-09-27T21:58:38.466Z,93.80
2017-09-27T22:01:06.795Z,94.00
2017-09-27T22:03:35.161Z,93.90
2017-09-27T22:06:03.489Z,93.70
2017-09-27T22:08:50.598Z,94.20
2017-09-27T22:11:18.918Z,94.80
2017-09-27T22:13:55.780Z,95.40
2017-09-27T22:16:24.941Z,95.90
2017-09-27T22:18:53.324Z,95.90
2017-09-27T22:21:21.730Z,95.90
2017-09-27T22:23:55.395Z,95.90
2017-09-27T22:26:23.745Z,95.40
2017-09-27T22:28:52.823Z,95.60
2017-09-27T22:31:21.164Z,95.50
2017-09-27T22:34:03.788Z,95.00
2017-09-27T22:36:32.151Z,95.00
2017-09-27T22:39:00.461Z,94.60
2017-09-27T22:41:28.799Z,94.60
2017-09-27T22:43:57.174Z,96.00
2017-09-27T22:46:25.485Z,95.80
2017-09-27T22:48:55.776Z,95.30
2017-09-27T22:51:24.193Z,95.40
2017-09-27T22:53:52.502Z,95.10
2017-09-27T22:56:20.862Z,95.80
2017-09-27T22:59:08.142Z,96.40
2017-09-27T23:01:37.232Z,96.30
2017-09-27T23:04:05.541Z,96.30
2017-09-27T23:06:33.871Z,96.30
2017-09-27T23:09:02.204Z,96.50
2017-09-27T23:11:35.819Z,96.50
2017-09-27T23:14:04.143Z,96.20
2017-09-27T23:16:32.439Z,96.40
2017-09-27T23:19:00.763Z,96.20
2017-09-27T23:21:29.078Z,96.40
2017-09-27T23:23:57.392Z,96.50
2017-09-27T23:26:26.498Z,97.00
2017-09-27T23:28:54.796Z,96.90
2017-09-27T23:31:24.121Z,96.80
2017-09-27T23:33:52.420Z,96.90
2017-09-27T23:36:20.719Z,97.40
2017-09-27T23:38:49.031Z,98.20
2017-09-27T23:41:18.101Z,97.70
2017-09-27T23:43:46.507Z,97.50
2017-09-27T23:46:14.811Z,97.60
2017-09-27T23:48:43.148Z,98.00
2017-09-27T23:51:11.451Z,98.20
2017-09-27T23:53:39.776Z,98.50
2017-09-27T23:56:08.122Z,98.00
2017-09-27T23:58:36.420Z,98.10
